sensor_id;sensor_type;location;lat;lon;timestamp;P1;durP1;ratioP1;P2;durP2;ratioP2
21601;SDS011;10963;50.934;4.668;2023-11-22T00:02:19;40.23;;;16.20;;
21601;SDS011;10963;50.934;4.668;2023-11-22T00:04:45;39.77;;;16.57;;
21601;SDS011;10963;50.934;4.668;2023-11-22T00:07:11;32.90;;;15.83;;
21601;SDS011;10963;50.934;4.668;2023-11-22T00:09:37;37.60;;;15.47;;
21601;SDS011;10963;50.934;4.668;2023-11-22T00:12:03;38.10;;;17.07;;
21601;SDS011;10963;50.934;4.668;2023-11-22T00:14:29;39.10;;;17.50;;
21601;SDS011;10963;50.934;4.668;2023-11-22T00:16:55;40.87;;;18.07;;
21601;SDS011;10963;50.934;4.668;2023-11-22T00:19:23;39.30;;;16.33;;
21601;SDS011;10963;50.934;4.668;2023-11-22T00:21:49;42.33;;;18.10;;
21601;SDS011;10963;50.934;4.668;2023-11-22T00:24:17;40.37;;;16.77;;
21601;SDS011;10963;50.934;4.668;2023-11-22T00:26:46;43.27;;;18.27;;
21601;SDS011;10963;50.934;4.668;2023-11-22T00:29:11;41.57;;;17.27;;
21601;SDS011;10963;50.934;4.668;2023-11-22T00:31:37;39.90;;;17.63;;
21601;SDS011;10963;50.934;4.668;2023-11-22T00:34:03;43.20;;;16.97;;
21601;SDS011;10963;50.934;4.668;2023-11-22T00:36:29;40.97;;;16.23;;
21601;SDS011;10963;50.934;4.668;2023-11-22T00:38:57;38.77;;;16.33;;
21601;SDS011;10963;50.934;4.668;2023-11-22T00:41:29;37.63;;;15.80;;
21601;SDS011;10963;50.934;4.668;2023-11-22T00:44:00;42.57;;;16.43;;
21601;SDS011;10963;50.934;4.668;2023-11-22T00:46:28;41.00;;;17.80;;
21601;SDS011;10963;50.934;4.668;2023-11-22T00:48:56;32.93;;;15.97;;
21601;SDS011;10963;50.934;4.668;2023-11-22T00:51:22;44.37;;;16.40;;
21601;SDS011;10963;50.934;4.668;2023-11-22T00:53:48;36.07;;;15.83;;
21601;SDS011;10963;50.934;4.668;2023-11-22T00:56:14;40.70;;;16.57;;
21601;SDS011;10963;50.934;4.668;2023-11-22T00:58:40;35.27;;;16.33;;
21601;SDS011;10963;50.934;4.668;2023-11-22T01:01:09;37.60;;;16.47;;
21601;SDS011;10963;50.934;4.668;2023-11-22T01:03:34;36.17;;;15.57;;
21601;SDS011;10963;50.934;4.668;2023-11-22T01:06:00;31.77;;;14.50;;
21601;SDS011;10963;50.934;4.668;2023-11-22T01:08:31;36.80;;;16.27;;
21601;SDS011;10963;50.934;4.668;2023-11-22T01:11:00;37.67;;;15.77;;
21601;SDS011;10963;50.934;4.668;2023-11-22T01:13:28;42.73;;;19.37;;
21601;SDS011;10963;50.934;4.668;2023-11-22T01:15:55;45.43;;;18.37;;
21601;SDS011;10963;50.934;4.668;2023-11-22T01:18:23;37.27;;;15.87;;
21601;SDS011;10963;50.934;4.668;2023-11-22T01:20:51;33.60;;;15.57;;
21601;SDS011;10963;50.934;4.668;2023-11-22T01:23:16;32.10;;;15.40;;
21601;SDS011;10963;50.934;4.668;2023-11-22T01:25:42;37.17;;;14.83;;
21601;SDS011;10963;50.934;4.668;2023-11-22T01:28:08;30.63;;;14.53;;
21601;SDS011;10963;50.934;4.668;2023-11-22T01:30:36;30.23;;;13.50;;
21601;SDS011;10963;50.934;4.668;2023-11-22T01:33:03;29.57;;;13.03;;
21601;SDS011;10963;50.934;4.668;2023-11-22T01:35:29;28.93;;;12.50;;
21601;SDS011;10963;50.934;4.668;2023-11-22T01:37:57;29.23;;;13.50;;
21601;SDS011;10963;50.934;4.668;2023-11-22T01:40:27;30.27;;;14.33;;
21601;SDS011;10963;50.934;4.668;2023-11-22T01:42:54;41.47;;;15.07;;
21601;SDS011;10963;50.934;4.668;2023-11-22T01:45:22;31.17;;;14.07;;
21601;SDS011;10963;50.934;4.668;2023-11-22T01:47:48;35.87;;;16.87;;
21601;SDS011;10963;50.934;4.668;2023-11-22T01:50:15;27.53;;;13.70;;
21601;SDS011;10963;50.934;4.668;2023-11-22T01:52:41;33.80;;;15.23;;
21601;SDS011;10963;50.934;4.668;2023-11-22T01:55:10;31.40;;;13.97;;
21601;SDS011;10963;50.934;4.668;2023-11-22T01:57:38;32.83;;;15.67;;
21601;SDS011;10963;50.934;4.668;2023-11-22T02:00:06;34.27;;;15.37;;
21601;SDS011;10963;50.934;4.668;2023-11-22T02:02:39;38.67;;;17.23;;
21601;SDS011;10963;50.934;4.668;2023-11-22T02:05:05;37.60;;;16.87;;
21601;SDS011;10963;50.934;4.668;2023-11-22T02:07:33;40.30;;;16.90;;
21601;SDS011;10963;50.934;4.668;2023-11-22T02:10:02;41.30;;;16.23;;
21601;SDS011;10963;50.934;4.668;2023-11-22T02:12:32;38.73;;;16.90;;
21601;SDS011;10963;50.934;4.668;2023-11-22T02:15:03;39.30;;;16.93;;
21601;SDS011;10963;50.934;4.668;2023-11-22T02:17:32;42.13;;;17.40;;
21601;SDS011;10963;50.934;4.668;2023-11-22T02:20:01;38.50;;;16.47;;
21601;SDS011;10963;50.934;4.668;2023-11-22T02:22:31;41.07;;;16.40;;
21601;SDS011;10963;50.934;4.668;2023-11-22T02:24:57;39.87;;;16.80;;
21601;SDS011;10963;50.934;4.668;2023-11-22T02:27:22;36.60;;;16.67;;
21601;SDS011;10963;50.934;4.668;2023-11-22T02:29:51;37.50;;;16.97;;
21601;SDS011;10963;50.934;4.668;2023-11-22T02:32:16;43.33;;;18.00;;
21601;SDS011;10963;50.934;4.668;2023-11-22T02:34:43;41.63;;;17.27;;
21601;SDS011;10963;50.934;4.668;2023-11-22T02:37:09;47.23;;;17.50;;
21601;SDS011;10963;50.934;4.668;2023-11-22T02:40:24;38.17;;;17.37;;
21601;SDS011;10963;50.934;4.668;2023-11-22T02:42:32;39.90;;;16.27;;
21601;SDS011;10963;50.934;4.668;2023-11-22T02:45:01;40.40;;;16.57;;
21601;SDS011;10963;50.934;4.668;2023-11-22T02:47:30;44.27;;;18.30;;
21601;SDS011;10963;50.934;4.668;2023-11-22T02:49:56;39.77;;;17.33;;
21601;SDS011;10963;50.934;4.668;2023-11-22T02:52:24;44.43;;;18.23;;
21601;SDS011;10963;50.934;4.668;2023-11-22T02:54:51;40.17;;;17.00;;
21601;SDS011;10963;50.934;4.668;2023-11-22T02:57:17;46.40;;;18.40;;
21601;SDS011;10963;50.934;4.668;2023-11-22T02:59:45;41.67;;;16.13;;
21601;SDS011;10963;50.934;4.668;2023-11-22T03:02:11;50.60;;;19.30;;
21601;SDS011;10963;50.934;4.668;2023-11-22T03:04:37;46.73;;;18.03;;
21601;SDS011;10963;50.934;4.668;2023-11-22T03:07:05;60.43;;;18.60;;
21601;SDS011;10963;50.934;4.668;2023-11-22T03:09:31;55.50;;;18.03;;
21601;SDS011;10963;50.934;4.668;2023-11-22T03:11:57;53.30;;;18.03;;
21601;SDS011;10963;50.934;4.668;2023-11-22T03:14:27;54.17;;;17.67;;
21601;SDS011;10963;50.934;4.668;2023-11-22T03:16:54;67.03;;;18.00;;
21601;SDS011;10963;50.934;4.668;2023-11-22T03:19:20;86.20;;;18.97;;
21601;SDS011;10963;50.934;4.668;2023-11-22T03:21:46;91.27;;;18.73;;
21601;SDS011;10963;50.934;4.668;2023-11-22T03:24:11;90.53;;;20.33;;
21601;SDS011;10963;50.934;4.668;2023-11-22T03:26:37;62.97;;;17.53;;
21601;SDS011;10963;50.934;4.668;2023-11-22T03:29:04;76.53;;;17.23;;
21601;SDS011;10963;50.934;4.668;2023-11-22T03:31:32;89.87;;;19.23;;
21601;SDS011;10963;50.934;4.668;2023-11-22T03:33:58;100.90;;;20.07;;
21601;SDS011;10963;50.934;4.668;2023-11-22T03:36:23;73.33;;;17.37;;
21601;SDS011;10963;50.934;4.668;2023-11-22T03:38:50;55.73;;;15.90;;
21601;SDS011;10963;50.934;4.668;2023-11-22T03:41:18;116.37;;;19.53;;
21601;SDS011;10963;50.934;4.668;2023-11-22T03:43:48;137.40;;;20.80;;
21601;SDS011;10963;50.934;4.668;2023-11-22T03:46:14;79.20;;;18.33;;
21601;SDS011;10963;50.934;4.668;2023-11-22T03:48:42;87.47;;;16.13;;
21601;SDS011;10963;50.934;4.668;2023-11-22T03:51:08;178.80;;;21.90;;
21601;SDS011;10963;50.934;4.668;2023-11-22T03:53:33;83.43;;;16.73;;
21601;SDS011;10963;50.934;4.668;2023-11-22T03:55:59;70.23;;;16.07;;
21601;SDS011;10963;50.934;4.668;2023-11-22T03:58:27;106.90;;;16.87;;
21601;SDS011;10963;50.934;4.668;2023-11-22T04:00:53;82.30;;;17.80;;
21601;SDS011;10963;50.934;4.668;2023-11-22T04:03:21;89.17;;;18.20;;
21601;SDS011;10963;50.934;4.668;2023-11-22T04:05:49;75.13;;;15.90;;
21601;SDS011;10963;50.934;4.668;2023-11-22T04:08:20;48.33;;;15.00;;
21601;SDS011;10963;50.934;4.668;2023-11-22T04:10:48;81.37;;;17.10;;
21601;SDS011;10963;50.934;4.668;2023-11-22T04:13:14;121.60;;;18.33;;
21601;SDS011;10963;50.934;4.668;2023-11-22T04:15:44;92.73;;;14.83;;
21601;SDS011;10963;50.934;4.668;2023-11-22T04:18:10;98.30;;;17.97;;
21601;SDS011;10963;50.934;4.668;2023-11-22T04:20:38;107.27;;;17.87;;
21601;SDS011;10963;50.934;4.668;2023-11-22T04:23:05;77.37;;;15.20;;
21601;SDS011;10963;50.934;4.668;2023-11-22T04:25:30;144.47;;;20.17;;
21601;SDS011;10963;50.934;4.668;2023-11-22T04:27:59;132.77;;;18.57;;
21601;SDS011;10963;50.934;4.668;2023-11-22T04:30:27;159.17;;;21.67;;
21601;SDS011;10963;50.934;4.668;2023-11-22T04:32:53;131.80;;;19.33;;
21601;SDS011;10963;50.934;4.668;2023-11-22T04:35:21;93.60;;;17.53;;
21601;SDS011;10963;50.934;4.668;2023-11-22T04:37:47;93.77;;;17.67;;
21601;SDS011;10963;50.934;4.668;2023-11-22T04:40:13;108.70;;;18.67;;
21601;SDS011;10963;50.934;4.668;2023-11-22T04:42:42;72.23;;;17.23;;
21601;SDS011;10963;50.934;4.668;2023-11-22T04:45:10;60.73;;;15.80;;
21601;SDS011;10963;50.934;4.668;2023-11-22T04:47:36;64.37;;;17.33;;
21601;SDS011;10963;50.934;4.668;2023-11-22T04:50:07;53.57;;;16.93;;
21601;SDS011;10963;50.934;4.668;2023-11-22T04:52:33;62.43;;;14.97;;
21601;SDS011;10963;50.934;4.668;2023-11-22T04:55:02;44.00;;;13.70;;
21601;SDS011;10963;50.934;4.668;2023-11-22T04:57:34;50.50;;;14.63;;
21601;SDS011;10963;50.934;4.668;2023-11-22T05:00:02;52.00;;;16.00;;
21601;SDS011;10963;50.934;4.668;2023-11-22T05:02:32;47.13;;;13.60;;
21601;SDS011;10963;50.934;4.668;2023-11-22T05:05:00;42.13;;;16.07;;
21601;SDS011;10963;50.934;4.668;2023-11-22T05:07:30;38.73;;;14.47;;
21601;SDS011;10963;50.934;4.668;2023-11-22T05:09:56;40.20;;;15.10;;
21601;SDS011;10963;50.934;4.668;2023-11-22T05:12:24;42.10;;;15.43;;
21601;SDS011;10963;50.934;4.668;2023-11-22T05:14:52;49.67;;;17.83;;
21601;SDS011;10963;50.934;4.668;2023-11-22T05:17:18;40.03;;;15.33;;
21601;SDS011;10963;50.934;4.668;2023-11-22T05:19:46;41.57;;;16.37;;
21601;SDS011;10963;50.934;4.668;2023-11-22T05:22:12;56.43;;;17.70;;
21601;SDS011;10963;50.934;4.668;2023-11-22T05:24:40;43.30;;;16.77;;
21601;SDS011;10963;50.934;4.668;2023-11-22T05:27:08;74.87;;;19.87;;
21601;SDS011;10963;50.934;4.668;2023-11-22T05:29:37;62.83;;;19.33;;
21601;SDS011;10963;50.934;4.668;2023-11-22T05:32:03;82.97;;;21.70;;
21601;SDS011;10963;50.934;4.668;2023-11-22T05:34:31;123.13;;;23.57;;
21601;SDS011;10963;50.934;4.668;2023-11-22T05:37:00;80.97;;;20.30;;
21601;SDS011;10963;50.934;4.668;2023-11-22T05:39:25;161.63;;;27.73;;
21601;SDS011;10963;50.934;4.668;2023-11-22T05:41:54;97.00;;;19.47;;
21601;SDS011;10963;50.934;4.668;2023-11-22T05:44:21;92.37;;;20.27;;
21601;SDS011;10963;50.934;4.668;2023-11-22T05:46:47;106.27;;;22.17;;
21601;SDS011;10963;50.934;4.668;2023-11-22T05:49:13;137.17;;;23.67;;
21601;SDS011;10963;50.934;4.668;2023-11-22T05:51:41;64.10;;;17.40;;
21601;SDS011;10963;50.934;4.668;2023-11-22T05:54:07;52.43;;;19.00;;
21601;SDS011;10963;50.934;4.668;2023-11-22T05:56:32;133.70;;;21.13;;
21601;SDS011;10963;50.934;4.668;2023-11-22T05:58:58;82.57;;;21.73;;
21601;SDS011;10963;50.934;4.668;2023-11-22T06:01:27;75.30;;;20.90;;
21601;SDS011;10963;50.934;4.668;2023-11-22T06:03:56;76.17;;;19.47;;
21601;SDS011;10963;50.934;4.668;2023-11-22T06:06:24;58.77;;;18.63;;
21601;SDS011;10963;50.934;4.668;2023-11-22T06:08:52;92.00;;;22.03;;
21601;SDS011;10963;50.934;4.668;2023-11-22T06:11:20;78.43;;;19.43;;
21601;SDS011;10963;50.934;4.668;2023-11-22T06:13:46;87.87;;;20.80;;
21601;SDS011;10963;50.934;4.668;2023-11-22T06:16:17;80.90;;;22.93;;
21601;SDS011;10963;50.934;4.668;2023-11-22T06:18:45;86.10;;;21.97;;
21601;SDS011;10963;50.934;4.668;2023-11-22T06:21:15;72.93;;;20.40;;
21601;SDS011;10963;50.934;4.668;2023-11-22T06:23:43;58.63;;;19.53;;
21601;SDS011;10963;50.934;4.668;2023-11-22T06:26:09;58.77;;;19.97;;
21601;SDS011;10963;50.934;4.668;2023-11-22T06:28:35;78.97;;;20.77;;
21601;SDS011;10963;50.934;4.668;2023-11-22T06:31:01;77.43;;;22.10;;
21601;SDS011;10963;50.934;4.668;2023-11-22T06:33:28;54.87;;;18.40;;
21601;SDS011;10963;50.934;4.668;2023-11-22T06:35:55;65.07;;;20.47;;
21601;SDS011;10963;50.934;4.668;2023-11-22T06:38:21;66.70;;;20.67;;
21601;SDS011;10963;50.934;4.668;2023-11-22T06:40:50;75.50;;;21.10;;
21601;SDS011;10963;50.934;4.668;2023-11-22T06:43:16;75.07;;;21.27;;
21601;SDS011;10963;50.934;4.668;2023-11-22T06:45:42;64.03;;;20.83;;
21601;SDS011;10963;50.934;4.668;2023-11-22T06:48:07;68.87;;;23.67;;
21601;SDS011;10963;50.934;4.668;2023-11-22T06:50:33;67.70;;;20.83;;
21601;SDS011;10963;50.934;4.668;2023-11-22T06:53:02;71.23;;;20.93;;
21601;SDS011;10963;50.934;4.668;2023-11-22T06:55:32;72.57;;;23.47;;
21601;SDS011;10963;50.934;4.668;2023-11-22T06:57:58;61.80;;;19.87;;
21601;SDS011;10963;50.934;4.668;2023-11-22T07:00:24;61.17;;;22.57;;
21601;SDS011;10963;50.934;4.668;2023-11-22T07:02:52;70.43;;;22.33;;
21601;SDS011;10963;50.934;4.668;2023-11-22T07:05:20;58.20;;;20.20;;
21601;SDS011;10963;50.934;4.668;2023-11-22T07:07:48;54.57;;;20.00;;
21601;SDS011;10963;50.934;4.668;2023-11-22T07:10:14;61.37;;;20.60;;
21601;SDS011;10963;50.934;4.668;2023-11-22T07:12:45;59.20;;;21.97;;
21601;SDS011;10963;50.934;4.668;2023-11-22T07:15:12;62.43;;;20.93;;
21601;SDS011;10963;50.934;4.668;2023-11-22T07:17:39;64.40;;;21.97;;
21601;SDS011;10963;50.934;4.668;2023-11-22T07:20:05;62.97;;;21.63;;
21601;SDS011;10963;50.934;4.668;2023-11-22T07:22:34;52.83;;;20.27;;
21601;SDS011;10963;50.934;4.668;2023-11-22T07:25:00;64.97;;;21.60;;
21601;SDS011;10963;50.934;4.668;2023-11-22T07:27:27;62.07;;;22.60;;
21601;SDS011;10963;50.934;4.668;2023-11-22T07:29:53;56.40;;;20.40;;
21601;SDS011;10963;50.934;4.668;2023-11-22T07:32:19;65.00;;;20.57;;
21601;SDS011;10963;50.934;4.668;2023-11-22T07:34:48;53.90;;;19.07;;
21601;SDS011;10963;50.934;4.668;2023-11-22T07:37:13;52.23;;;20.40;;
21601;SDS011;10963;50.934;4.668;2023-11-22T07:39:40;58.40;;;21.40;;
21601;SDS011;10963;50.934;4.668;2023-11-22T07:42:09;61.43;;;20.53;;
21601;SDS011;10963;50.934;4.668;2023-11-22T07:44:34;58.97;;;21.90;;
21601;SDS011;10963;50.934;4.668;2023-11-22T07:47:03;56.23;;;20.67;;
21601;SDS011;10963;50.934;4.668;2023-11-22T07:49:38;58.07;;;19.67;;
21601;SDS011;10963;50.934;4.668;2023-11-22T07:52:07;52.37;;;19.90;;
21601;SDS011;10963;50.934;4.668;2023-11-22T07:54:35;57.33;;;22.13;;
21601;SDS011;10963;50.934;4.668;2023-11-22T07:57:06;53.50;;;20.77;;
21601;SDS011;10963;50.934;4.668;2023-11-22T07:59:34;55.80;;;21.50;;
21601;SDS011;10963;50.934;4.668;2023-11-22T08:02:02;61.43;;;22.00;;
21601;SDS011;10963;50.934;4.668;2023-11-22T08:04:36;58.57;;;21.13;;
21601;SDS011;10963;50.934;4.668;2023-11-22T08:07:02;57.23;;;19.77;;
21601;SDS011;10963;50.934;4.668;2023-11-22T08:09:28;58.17;;;20.83;;
21601;SDS011;10963;50.934;4.668;2023-11-22T08:11:58;55.40;;;20.53;;
21601;SDS011;10963;50.934;4.668;2023-11-22T08:14:28;63.13;;;20.80;;
21601;SDS011;10963;50.934;4.668;2023-11-22T08:16:55;57.13;;;20.77;;
21601;SDS011;10963;50.934;4.668;2023-11-22T08:19:23;55.53;;;20.40;;
21601;SDS011;10963;50.934;4.668;2023-11-22T08:21:52;57.50;;;20.47;;
21601;SDS011;10963;50.934;4.668;2023-11-22T08:24:19;55.43;;;19.80;;
21601;SDS011;10963;50.934;4.668;2023-11-22T08:26:44;56.67;;;20.67;;
21601;SDS011;10963;50.934;4.668;2023-11-22T08:29:11;58.27;;;19.97;;
21601;SDS011;10963;50.934;4.668;2023-11-22T08:31:40;51.67;;;20.97;;
21601;SDS011;10963;50.934;4.668;2023-11-22T08:34:05;63.57;;;20.80;;
21601;SDS011;10963;50.934;4.668;2023-11-22T08:36:35;62.50;;;21.47;;
21601;SDS011;10963;50.934;4.668;2023-11-22T08:39:01;57.13;;;19.90;;
21601;SDS011;10963;50.934;4.668;2023-11-22T08:41:28;54.83;;;21.23;;
21601;SDS011;10963;50.934;4.668;2023-11-22T08:43:57;57.87;;;20.27;;
21601;SDS011;10963;50.934;4.668;2023-11-22T08:46:23;63.90;;;22.70;;
21601;SDS011;10963;50.934;4.668;2023-11-22T08:48:51;57.17;;;20.27;;
21601;SDS011;10963;50.934;4.668;2023-11-22T08:51:17;60.13;;;22.93;;
21601;SDS011;10963;50.934;4.668;2023-11-22T08:53:46;49.73;;;20.83;;
21601;SDS011;10963;50.934;4.668;2023-11-22T08:56:14;58.40;;;22.03;;
21601;SDS011;10963;50.934;4.668;2023-11-22T08:58:45;48.73;;;20.53;;
21601;SDS011;10963;50.934;4.668;2023-11-22T09:01:11;52.63;;;20.80;;
21601;SDS011;10963;50.934;4.668;2023-11-22T09:03:39;53.00;;;20.63;;
21601;SDS011;10963;50.934;4.668;2023-11-22T09:06:06;53.17;;;20.43;;
21601;SDS011;10963;50.934;4.668;2023-11-22T09:08:32;56.37;;;20.80;;
21601;SDS011;10963;50.934;4.668;2023-11-22T09:11:00;50.57;;;19.93;;
21601;SDS011;10963;50.934;4.668;2023-11-22T09:13:29;43.10;;;17.87;;
21601;SDS011;10963;50.934;4.668;2023-11-22T09:15:57;47.33;;;18.67;;
21601;SDS011;10963;50.934;4.668;2023-11-22T09:18:23;47.37;;;19.30;;
21601;SDS011;10963;50.934;4.668;2023-11-22T09:20:51;46.97;;;20.03;;
21601;SDS011;10963;50.934;4.668;2023-11-22T09:23:20;50.30;;;20.83;;
21601;SDS011;10963;50.934;4.668;2023-11-22T09:25:46;44.60;;;18.90;;
21601;SDS011;10963;50.934;4.668;2023-11-22T09:28:11;43.50;;;18.27;;
21601;SDS011;10963;50.934;4.668;2023-11-22T09:30:41;43.83;;;18.20;;
21601;SDS011;10963;50.934;4.668;2023-11-22T09:33:09;44.77;;;17.53;;
21601;SDS011;10963;50.934;4.668;2023-11-22T09:35:36;39.07;;;16.90;;
21601;SDS011;10963;50.934;4.668;2023-11-22T09:38:06;40.67;;;16.93;;
21601;SDS011;10963;50.934;4.668;2023-11-22T09:40:36;35.73;;;15.57;;
21601;SDS011;10963;50.934;4.668;2023-11-22T09:43:06;41.40;;;18.33;;
21601;SDS011;10963;50.934;4.668;2023-11-22T09:45:32;40.07;;;17.30;;
21601;SDS011;10963;50.934;4.668;2023-11-22T09:48:03;38.93;;;16.87;;
21601;SDS011;10963;50.934;4.668;2023-11-22T09:56:19;40.50;;;17.50;;
21601;SDS011;10963;50.934;4.668;2023-11-22T09:58:45;38.83;;;15.97;;
21601;SDS011;10963;50.934;4.668;2023-11-22T10:01:19;40.83;;;16.87;;
21601;SDS011;10963;50.934;4.668;2023-11-22T10:03:49;45.97;;;19.27;;
21601;SDS011;10963;50.934;4.668;2023-11-22T10:06:18;38.33;;;17.27;;
21601;SDS011;10963;50.934;4.668;2023-11-22T10:08:46;41.33;;;18.30;;
21601;SDS011;10963;50.934;4.668;2023-11-22T10:11:17;41.03;;;17.07;;
21601;SDS011;10963;50.934;4.668;2023-11-22T10:13:49;43.03;;;18.57;;
21601;SDS011;10963;50.934;4.668;2023-11-22T10:16:18;41.13;;;19.03;;
21601;SDS011;10963;50.934;4.668;2023-11-22T10:18:47;47.97;;;19.57;;
21601;SDS011;10963;50.934;4.668;2023-11-22T10:21:25;46.70;;;20.37;;
21601;SDS011;10963;50.934;4.668;2023-11-22T10:23:56;46.37;;;19.63;;
21601;SDS011;10963;50.934;4.668;2023-11-22T10:26:26;46.03;;;18.53;;
21601;SDS011;10963;50.934;4.668;2023-11-22T10:28:56;49.23;;;20.60;;
21601;SDS011;10963;50.934;4.668;2023-11-22T10:31:22;44.53;;;20.40;;
21601;SDS011;10963;50.934;4.668;2023-11-22T10:33:51;49.37;;;18.83;;
21601;SDS011;10963;50.934;4.668;2023-11-22T10:36:18;44.20;;;18.47;;
21601;SDS011;10963;50.934;4.668;2023-11-22T10:38:46;40.80;;;18.23;;
21601;SDS011;10963;50.934;4.668;2023-11-22T10:41:16;43.33;;;18.17;;
21601;SDS011;10963;50.934;4.668;2023-11-22T10:43:42;44.53;;;18.43;;
21601;SDS011;10963;50.934;4.668;2023-11-22T10:46:09;38.80;;;16.40;;
21601;SDS011;10963;50.934;4.668;2023-11-22T10:48:38;39.73;;;18.23;;
21601;SDS011;10963;50.934;4.668;2023-11-22T10:51:04;40.77;;;18.77;;
21601;SDS011;10963;50.934;4.668;2023-11-22T10:53:32;39.77;;;18.03;;
21601;SDS011;10963;50.934;4.668;2023-11-22T10:56:20;42.30;;;18.10;;
21601;SDS011;10963;50.934;4.668;2023-11-22T10:58:52;41.23;;;17.90;;
21601;SDS011;10963;50.934;4.668;2023-11-22T11:01:26;38.53;;;17.53;;
21601;SDS011;10963;50.934;4.668;2023-11-22T11:03:56;44.63;;;19.67;;
21601;SDS011;10963;50.934;4.668;2023-11-22T11:06:37;40.40;;;17.53;;
21601;SDS011;10963;50.934;4.668;2023-11-22T11:09:04;45.23;;;19.57;;
21601;SDS011;10963;50.934;4.668;2023-11-22T11:11:32;46.37;;;18.37;;
21601;SDS011;10963;50.934;4.668;2023-11-22T11:13:59;44.30;;;18.87;;
21601;SDS011;10963;50.934;4.668;2023-11-22T11:16:27;46.80;;;19.27;;
21601;SDS011;10963;50.934;4.668;2023-11-22T11:18:56;43.07;;;18.80;;
21601;SDS011;10963;50.934;4.668;2023-11-22T11:21:23;46.23;;;19.20;;
21601;SDS011;10963;50.934;4.668;2023-11-22T11:23:55;42.93;;;18.30;;
21601;SDS011;10963;50.934;4.668;2023-11-22T11:26:31;38.10;;;17.90;;
21601;SDS011;10963;50.934;4.668;2023-11-22T11:29:01;37.17;;;18.57;;
21601;SDS011;10963;50.934;4.668;2023-11-22T11:31:32;36.37;;;17.30;;
21601;SDS011;10963;50.934;4.668;2023-11-22T11:34:02;35.20;;;15.90;;
21601;SDS011;10963;50.934;4.668;2023-11-22T11:36:31;29.53;;;14.63;;
21601;SDS011;10963;50.934;4.668;2023-11-22T11:39:00;34.00;;;16.10;;
21601;SDS011;10963;50.934;4.668;2023-11-22T11:41:31;33.20;;;15.37;;
21601;SDS011;10963;50.934;4.668;2023-11-22T11:44:06;30.90;;;15.13;;
21601;SDS011;10963;50.934;4.668;2023-11-22T11:46:36;35.27;;;15.90;;
21601;SDS011;10963;50.934;4.668;2023-11-22T11:49:06;32.53;;;14.27;;
21601;SDS011;10963;50.934;4.668;2023-11-22T11:51:35;35.37;;;15.37;;
21601;SDS011;10963;50.934;4.668;2023-11-22T11:54:02;26.77;;;13.20;;
21601;SDS011;10963;50.934;4.668;2023-11-22T11:56:31;27.33;;;13.70;;
21601;SDS011;10963;50.934;4.668;2023-11-22T11:58:58;28.50;;;12.83;;
21601;SDS011;10963;50.934;4.668;2023-11-22T12:01:30;27.47;;;13.43;;
21601;SDS011;10963;50.934;4.668;2023-11-22T12:03:57;26.67;;;13.10;;
21601;SDS011;10963;50.934;4.668;2023-11-22T12:06:25;23.00;;;12.53;;
21601;SDS011;10963;50.934;4.668;2023-11-22T12:08:51;23.20;;;12.97;;
21601;SDS011;10963;50.934;4.668;2023-11-22T12:11:18;24.77;;;11.93;;
21601;SDS011;10963;50.934;4.668;2023-11-22T12:13:44;28.70;;;13.40;;
21601;SDS011;10963;50.934;4.668;2023-11-22T12:16:15;24.57;;;12.63;;
21601;SDS011;10963;50.934;4.668;2023-11-22T12:18:45;21.67;;;11.50;;
21601;SDS011;10963;50.934;4.668;2023-11-22T12:21:19;24.37;;;11.57;;
21601;SDS011;10963;50.934;4.668;2023-11-22T12:23:45;25.70;;;13.37;;
21601;SDS011;10963;50.934;4.668;2023-11-22T12:26:15;21.83;;;12.57;;
21601;SDS011;10963;50.934;4.668;2023-11-22T12:28:46;23.97;;;12.37;;
21601;SDS011;10963;50.934;4.668;2023-11-22T12:31:14;23.43;;;12.07;;
21601;SDS011;10963;50.934;4.668;2023-11-22T12:33:40;21.87;;;11.40;;
21601;SDS011;10963;50.934;4.668;2023-11-22T12:36:08;22.77;;;12.23;;
21601;SDS011;10963;50.934;4.668;2023-11-22T12:38:35;24.70;;;13.20;;
21601;SDS011;10963;50.934;4.668;2023-11-22T12:41:02;20.73;;;11.83;;
21601;SDS011;10963;50.934;4.668;2023-11-22T12:43:28;22.40;;;12.20;;
21601;SDS011;10963;50.934;4.668;2023-11-22T12:46:14;22.77;;;11.97;;
21601;SDS011;10963;50.934;4.668;2023-11-22T12:48:44;21.27;;;11.73;;
21601;SDS011;10963;50.934;4.668;2023-11-22T12:51:16;25.40;;;11.97;;
21601;SDS011;10963;50.934;4.668;2023-11-22T12:53:46;24.63;;;12.70;;
21601;SDS011;10963;50.934;4.668;2023-11-22T12:56:12;23.00;;;12.27;;
21601;SDS011;10963;50.934;4.668;2023-11-22T12:58:38;28.10;;;13.10;;
21601;SDS011;10963;50.934;4.668;2023-11-22T13:01:08;24.13;;;12.37;;
21601;SDS011;10963;50.934;4.668;2023-11-22T13:03:34;22.13;;;12.00;;
21601;SDS011;10963;50.934;4.668;2023-11-22T13:06:04;24.93;;;13.20;;
21601;SDS011;10963;50.934;4.668;2023-11-22T13:08:33;23.97;;;12.33;;
21601;SDS011;10963;50.934;4.668;2023-11-22T13:11:01;24.67;;;11.83;;
21601;SDS011;10963;50.934;4.668;2023-11-22T13:13:27;24.83;;;11.93;;
21601;SDS011;10963;50.934;4.668;2023-11-22T13:15:58;24.70;;;12.43;;
21601;SDS011;10963;50.934;4.668;2023-11-22T13:18:24;23.90;;;12.20;;
21601;SDS011;10963;50.934;4.668;2023-11-22T13:20:53;24.50;;;12.23;;
21601;SDS011;10963;50.934;4.668;2023-11-22T13:23:21;22.83;;;12.27;;
21601;SDS011;10963;50.934;4.668;2023-11-22T13:25:46;26.80;;;12.67;;
21601;SDS011;10963;50.934;4.668;2023-11-22T13:28:12;23.97;;;12.47;;
21601;SDS011;10963;50.934;4.668;2023-11-22T13:30:38;23.83;;;11.77;;
21601;SDS011;10963;50.934;4.668;2023-11-22T13:33:04;25.63;;;12.87;;
21601;SDS011;10963;50.934;4.668;2023-11-22T13:35:30;23.73;;;12.07;;
21601;SDS011;10963;50.934;4.668;2023-11-22T13:37:59;22.90;;;12.00;;
21601;SDS011;10963;50.934;4.668;2023-11-22T13:40:27;27.53;;;13.30;;
21601;SDS011;10963;50.934;4.668;2023-11-22T13:42:55;28.53;;;13.70;;
21601;SDS011;10963;50.934;4.668;2023-11-22T13:45:25;24.83;;;12.93;;
21601;SDS011;10963;50.934;4.668;2023-11-22T13:47:51;26.03;;;12.27;;
21601;SDS011;10963;50.934;4.668;2023-11-22T13:50:25;23.63;;;12.37;;
21601;SDS011;10963;50.934;4.668;2023-11-22T13:52:54;22.97;;;11.83;;
21601;SDS011;10963;50.934;4.668;2023-11-22T13:55:22;20.90;;;11.90;;
21601;SDS011;10963;50.934;4.668;2023-11-22T13:57:51;27.33;;;12.30;;
21601;SDS011;10963;50.934;4.668;2023-11-22T14:00:18;22.93;;;12.10;;
21601;SDS011;10963;50.934;4.668;2023-11-22T14:02:54;24.70;;;13.20;;
21601;SDS011;10963;50.934;4.668;2023-11-22T14:05:24;24.60;;;12.97;;
21601;SDS011;10963;50.934;4.668;2023-11-22T14:07:53;24.23;;;13.33;;
21601;SDS011;10963;50.934;4.668;2023-11-22T14:10:19;24.30;;;12.63;;
21601;SDS011;10963;50.934;4.668;2023-11-22T14:12:50;27.03;;;11.67;;
21601;SDS011;10963;50.934;4.668;2023-11-22T14:15:16;24.27;;;11.63;;
21601;SDS011;10963;50.934;4.668;2023-11-22T14:17:47;20.70;;;11.80;;
21601;SDS011;10963;50.934;4.668;2023-11-22T14:20:16;25.83;;;13.07;;
21601;SDS011;10963;50.934;4.668;2023-11-22T14:22:44;26.30;;;13.30;;
21601;SDS011;10963;50.934;4.668;2023-11-22T14:25:09;26.20;;;12.37;;
21601;SDS011;10963;50.934;4.668;2023-11-22T14:27:41;23.33;;;12.53;;
21601;SDS011;10963;50.934;4.668;2023-11-22T14:30:07;25.10;;;12.80;;
21601;SDS011;10963;50.934;4.668;2023-11-22T14:32:37;23.00;;;11.90;;